Terminal Aerodrome Forecast
Issued by NWS Omaha/Valley, NE

Home | Current Version | Previous Version | Graphics & Text | Print | Product List | Glossary On
Versions: 1 2 3 4 5 6 7 8 9 10 11 12 13 14 15 16 17 18
000
FTUS43 KOAX 291732
TAFOFK
TAF
KOFK 291732Z 2918/3018 17008KT P6SM SCT120 BKN200
     FM292300 16006KT P6SM VCTS BKN060CB
     FM300300 20004KT P6SM BKN100 PROB30 3003/3006 4SM -TSRA
      OVC040CB
     FM301700 05004KT P6SM OVC130=

USA.gov is the U.S. government's official web portal to all federal, state and local government web resources and services.